QRA weather

Rand Airport
Johannesburg, Gauteng, South Africa

Public forecast

Using degrees Celsius for public forecast. Weather courtesy of forecast.io.

METAR (pilot weather report)

Report is more than 6 hours old.

Retrieved 2018/08/17 16:00 UTC (15 hours ago):

FAGM 171600Z 20013KT CAVOK 18/M12 Q1024

TAF (pilot weather forecast)

Closest forecast is OR Tambo International Airport, 8.0 nm (14.9 km) NE. Retrieved 2018/08/18 06:00 UTC (1 hour ago):

TAF FAOR 180706Z 1806/1912 07015KT 9999 OVC012 BECMG 1808/1810 BKN020 PROB30 TEMPO 1812/1816 4500 SHRA FEW035TCU BECMG 1819/1821 01012KT BECMG 1906/1908 SCT035 BECMG 1910/1912 31015KT TX16/1813Z TN08/1904Z